Time;durP1;ratioP1;P1;durP2;ratioP2;P2;SDS_P1;SDS_P2;PMS_P1;PMS_P2;Temp;Humidity;BMP_temperature;BMP_pressure;BME280_temperature;BME280_humidity;BME280_pressure;Samples;Min_cycle;Max_cycle;Signal;HPM_P1;HPM_P2
2021/01/21 00:00:29;;;;;;;3.65;2.70;;;;;;;5.79;76.74;96958.16;4992477;28;20385;-81
2021/01/21 00:02:55;;;;;;;4.38;2.58;;;;;;;5.93;76.74;96971.34;4992408;28;20485;-81
2021/01/21 00:05:20;;;;;;;4.13;2.60;;;;;;;5.82;76.52;96989.84;4992854;28;20038;-81
2021/01/21 00:07:50;;;;;;;6.18;3.13;;;;;;;5.58;76.91;96964.56;5100843;22;20113;-96
2021/01/21 00:17:55;;;;;;;9.30;4.47;;;;;;;5.29;76.11;97009.16;5301345;22;20025;-96
2021/01/21 00:20:50;;;;;;;8.90;5.53;;;;;;;5.27;76.23;96992.88;5690874;22;21095;-96
2021/01/21 00:54:30;;;;;;;5.85;3.08;;;;;;;5.29;76.09;97110.59;5082822;22;20057;-95
2021/01/21 00:57:03;;;;;;;6.90;3.10;;;;;;;5.26;76.27;97116.13;5117754;22;20058;-96
2021/01/21 00:59:29;;;;;;;7.15;2.55;;;;;;;5.05;76.59;97119.84;5033542;28;20034;-93
2021/01/21 01:06:55;;;;;;;4.90;1.85;;;;;;;4.99;74.47;97111.84;5182593;22;20740;-95
2021/01/21 01:17:05;;;;;;;7.55;2.03;;;;;;;4.77;74.74;97158.91;5583126;22;20054;-95
2021/01/21 01:19:39;;;;;;;4.50;1.52;;;;;;;5.03;74.61;97194.59;5061542;23;20048;-95
2021/01/21 01:22:15;;;;;;;6.57;2.08;;;;;;;5.16;73.49;97186.44;5643698;22;20372;-94
2021/01/21 01:27:16;;;;;;;2.95;1.40;;;;;;;4.92;73.35;97172.25;5460396;22;20045;-96
2021/01/21 01:29:44;;;;;;;3.85;1.65;;;;;;;4.91;74.42;97206.19;5144398;22;20012;-94
2021/01/21 01:32:13;;;;;;;9.48;1.83;;;;;;;4.69;73.96;97189.22;5031632;28;20045;-93
2021/01/21 01:34:39;;;;;;;9.65;1.95;;;;;;;4.61;75.11;97192.53;5169488;22;20050;-94
2021/01/21 02:27:00;;;;;;;2.40;1.10;;;;;;;5.51;73.62;97314.84;5368726;22;20111;-96
2021/01/21 02:29:43;;;;;;;4.40;1.05;;;;;;;5.25;72.85;97278.34;5012726;28;20041;-95
2021/01/21 02:32:17;;;;;;;8.30;1.33;;;;;;;5.50;73.48;97319.25;5032227;28;20079;-94
2021/01/21 02:34:53;;;;;;;8.32;2.55;;;;;;;5.34;73.88;97290.47;5039298;28;20028;-95
2021/01/21 02:37:23;;;;;;;5.03;1.35;;;;;;;5.31;74.38;97289.00;5139578;22;20046;-96
2021/01/21 02:39:51;;;;;;;4.00;1.08;;;;;;;5.37;73.32;97284.97;4997883;28;20431;-94
2021/01/21 02:42:17;;;;;;;6.10;1.15;;;;;;;5.28;74.27;97285.88;5026854;22;20106;-94
2021/01/21 02:44:43;;;;;;;6.05;1.40;;;;;;;5.53;73.57;97297.34;4984320;28;20129;-95
2021/01/21 02:47:10;;;;;;;6.00;1.17;;;;;;;5.81;74.97;97338.91;5153129;22;20053;-96
2021/01/21 02:49:36;;;;;;;3.33;0.88;;;;;;;5.51;74.01;97304.44;5021742;28;20114;-96
2021/01/21 02:52:18;;;;;;;7.88;1.02;;;;;;;5.39;72.83;97290.03;5014344;28;20022;-95
2021/01/21 02:54:49;;;;;;;6.53;1.73;;;;;;;5.61;74.37;97343.41;5032150;28;20076;-94
2021/01/21 02:57:32;;;;;;;6.82;1.15;;;;;;;5.82;73.91;97343.13;5203954;22;20045;-95
2021/01/21 03:00:06;;;;;;;10.27;1.60;;;;;;;5.52;75.78;97358.16;5363867;22;20050;-94
2021/01/21 03:02:35;;;;;;;15.43;1.50;;;;;;;5.44;75.99;97319.84;5037006;23;20436;-96
2021/01/21 03:05:02;;;;;;;3.53;1.45;;;;;;;5.31;77.35;97312.41;5011187;28;20034;-95
2021/01/21 03:07:27;;;;;;;11.48;2.45;;;;;;;5.29;77.71;97370.72;5009887;28;20062;-95
2021/01/21 03:09:53;;;;;;;5.57;0.77;;;;;;;4.93;78.40;97349.84;5015667;28;20026;-95
2021/01/21 03:14:52;;;;;;;5.35;1.02;;;;;;;5.09;76.81;97326.63;5015817;28;20456;-94
2021/01/21 03:17:19;;;;;;;5.40;1.25;;;;;;;5.38;77.62;97362.06;5007196;28;20080;-94
2021/01/21 03:19:45;;;;;;;7.13;0.82;;;;;;;5.05;76.92;97322.66;5003426;28;20046;-94
2021/01/21 03:22:10;;;;;;;4.90;0.80;;;;;;;5.34;76.97;97350.31;4996760;28;20031;-94
2021/01/21 03:24:36;;;;;;;6.90;0.70;;;;;;;5.09;76.48;97347.41;4981504;28;20087;-95
2021/01/21 03:27:01;;;;;;;3.38;1.40;;;;;;;5.47;76.50;97358.59;4981113;28;20069;-96
2021/01/21 03:29:27;;;;;;;6.80;1.00;;;;;;;5.23;76.53;97338.31;4997285;28;20026;-96
2021/01/21 03:31:53;;;;;;;4.45;0.82;;;;;;;5.28;76.31;97353.50;4984818;28;20037;-94
2021/01/21 03:34:19;;;;;;;4.78;1.02;;;;;;;5.30;76.70;97373.19;4975882;28;20030;-94
2021/01/21 03:36:44;;;;;;;3.22;1.02;;;;;;;5.51;76.60;97391.16;4976956;28;20034;-94
2021/01/21 03:39:10;;;;;;;7.07;0.77;;;;;;;5.44;76.38;97392.69;4976505;28;20026;-95
2021/01/21 03:41:37;;;;;;;2.83;0.60;;;;;;;5.48;76.91;97404.47;4977394;28;20011;-96
2021/01/21 03:44:03;;;;;;;9.90;0.90;;;;;;;5.44;78.18;97410.09;4974234;28;20023;-95
2021/01/21 03:46:28;;;;;;;6.18;0.80;;;;;;;5.80;76.08;97408.38;4969627;28;20106;-94
2021/01/21 03:48:53;;;;;;;10.90;1.95;;;;;;;5.70;75.73;97398.00;4978217;28;20018;-94
2021/01/21 03:51:19;;;;;;;2.60;0.68;;;;;;;5.40;76.39;97417.38;4971283;28;20122;-94
2021/01/21 03:53:44;;;;;;;3.92;0.75;;;;;;;5.48;75.89;97412.25;4959618;28;20038;-95
2021/01/21 03:56:25;;;;;;;3.67;0.70;;;;;;;5.89;75.22;97422.31;4958811;28;20032;-94
2021/01/21 03:58:50;;;;;;;6.30;0.85;;;;;;;5.99;75.23;97417.06;4971990;28;20031;-95
2021/01/21 04:01:16;;;;;;;7.72;0.60;;;;;;;6.03;75.04;97434.03;4955831;29;20110;-94
2021/01/21 04:03:41;;;;;;;3.05;0.70;;;;;;;6.16;75.32;97431.84;4962033;28;20023;-94
2021/01/21 04:06:06;;;;;;;4.80;0.93;;;;;;;6.14;76.24;97439.81;4959733;28;20033;-95
2021/01/21 04:08:32;;;;;;;3.40;0.90;;;;;;;6.27;75.09;97429.00;4958298;28;20030;-93
2021/01/21 04:10:57;;;;;;;3.10;0.75;;;;;;;6.43;75.34;97437.94;4957989;28;20035;-92
2021/01/21 04:13:23;;;;;;;4.05;1.33;;;;;;;6.34;75.01;97442.28;4963662;28;20035;-93
2021/01/21 04:15:48;;;;;;;5.57;0.77;;;;;;;6.38;75.75;97434.97;4956491;28;20023;-91
2021/01/21 04:18:14;;;;;;;7.20;1.15;;;;;;;6.36;75.71;97445.56;4971226;28;20363;-95
2021/01/21 04:20:40;;;;;;;4.80;0.68;;;;;;;6.48;74.79;97446.94;4955966;28;20034;-92
2021/01/21 04:23:06;;;;;;;5.30;0.88;;;;;;;6.59;75.18;97450.28;4970954;28;20035;-93
2021/01/21 04:25:32;;;;;;;5.53;0.90;;;;;;;6.03;75.91;97441.84;4964757;28;20023;-93
2021/01/21 04:27:57;;;;;;;3.55;0.82;;;;;;;6.21;75.91;97449.66;4970688;28;20482;-93
2021/01/21 04:30:23;;;;;;;4.75;0.90;;;;;;;6.47;74.70;97454.91;4961070;28;20509;-95
2021/01/21 04:32:48;;;;;;;4.80;0.77;;;;;;;6.54;74.69;97461.97;4958942;28;20031;-93
2021/01/21 04:35:13;;;;;;;2.55;0.75;;;;;;;6.44;74.89;97463.06;4970573;28;20027;-93
2021/01/21 04:37:39;;;;;;;7.05;1.50;;;;;;;6.44;73.82;97478.69;4964352;28;20489;-94
2021/01/21 04:40:05;;;;;;;2.92;0.77;;;;;;;6.13;75.18;97468.63;4959804;28;20478;-92
2021/01/21 04:42:31;;;;;;;5.22;1.25;;;;;;;5.84;75.56;97466.19;4955643;28;20020;-90
2021/01/21 04:44:57;;;;;;;6.60;0.60;;;;;;;5.74;76.82;97497.47;4956615;28;20031;-93
2021/01/21 04:47:24;;;;;;;6.63;0.95;;;;;;;5.93;76.02;97476.53;4963266;28;20031;-92
2021/01/21 04:49:52;;;;;;;4.47;0.65;;;;;;;5.85;76.31;97481.66;4968366;28;20082;-94
2021/01/21 04:52:19;;;;;;;1.40;0.60;;;;;;;5.99;74.93;97463.94;4973512;28;20030;-92
2021/01/21 04:54:51;;;;;;;1.40;0.50;;;;;;;5.90;75.96;97476.81;4988696;28;20031;-95
2021/01/21 04:57:21;;;;;;;1.92;0.35;;;;;;;5.94;76.10;97483.41;4979187;28;20083;-91
2021/01/21 04:59:48;;;;;;;0.80;0.38;;;;;;;5.74;77.04;97479.25;4967701;28;20034;-93
2021/01/21 05:02:15;;;;;;;2.58;0.43;;;;;;;5.94;75.51;97467.78;4966516;28;20027;-93
2021/01/21 05:04:41;;;;;;;4.07;0.43;;;;;;;6.30;74.79;97473.03;4974835;28;20035;-93
2021/01/21 05:07:07;;;;;;;4.10;0.57;;;;;;;6.29;74.65;97471.38;4974287;28;20389;-92
2021/01/21 05:09:34;;;;;;;7.70;0.95;;;;;;;6.54;74.74;97485.44;4965033;28;20074;-94
2021/01/21 05:12:00;;;;;;;3.72;0.50;;;;;;;6.28;74.57;97490.59;4957409;28;20039;-93
2021/01/21 05:14:25;;;;;;;4.97;0.80;;;;;;;6.13;74.93;97471.22;4968242;28;20049;-95
2021/01/21 05:16:51;;;;;;;6.97;1.48;;;;;;;5.97;76.41;97478.88;4966112;28;20030;-94
2021/01/21 05:19:18;;;;;;;1.45;0.73;;;;;;;6.30;75.21;97483.44;4959024;28;20023;-93
2021/01/21 05:21:43;;;;;;;2.47;0.55;;;;;;;6.24;75.58;97494.47;4959269;28;20027;-94
2021/01/21 05:24:10;;;;;;;2.70;0.80;;;;;;;6.32;75.25;97478.91;4980452;28;20027;-94
2021/01/21 05:26:43;;;;;;;6.40;1.05;;;;;;;6.17;74.75;97469.16;4988677;28;20039;-95
2021/01/21 05:29:12;;;;;;;7.45;1.00;;;;;;;6.06;76.22;97464.97;4987222;28;20015;-94
2021/01/21 05:31:40;;;;;;;4.82;1.20;;;;;;;6.25;76.06;97470.03;4984191;28;20031;-94
2021/01/21 05:34:08;;;;;;;3.38;0.70;;;;;;;6.37;75.00;97457.59;4973689;28;20039;-95
2021/01/21 05:36:42;;;;;;;5.85;0.80;;;;;;;6.11;75.73;97453.13;4968747;28;20070;-95
2021/01/21 05:39:08;;;;;;;10.88;1.08;;;;;;;6.10;75.12;97461.94;4982818;28;20085;-94
2021/01/21 05:41:35;;;;;;;3.25;0.50;;;;;;;5.93;75.77;97460.91;4988780;28;20054;-95
2021/01/21 05:44:02;;;;;;;6.45;0.80;;;;;;;6.14;76.30;97457.22;4970343;28;20038;-95
2021/01/21 05:46:28;;;;;;;2.70;1.00;;;;;;;6.14;74.98;97459.81;4959524;28;20038;-94
2021/01/21 05:48:54;;;;;;;6.78;0.80;;;;;;;6.11;75.10;97447.94;4963293;28;20030;-96
2021/01/21 05:51:22;;;;;;;4.45;0.95;;;;;;;5.89;75.40;97432.72;4967425;28;20030;-95
2021/01/21 05:53:48;;;;;;;6.93;0.82;;;;;;;5.95;75.21;97443.38;4978492;28;20114;-95
2021/01/21 05:56:19;;;;;;;4.95;0.85;;;;;;;5.78;75.73;97428.53;4961293;28;20058;-96
2021/01/21 05:58:54;;;;;;;3.67;1.30;;;;;;;5.90;75.43;97429.94;4975043;28;20054;-94
2021/01/21 06:01:24;;;;;;;4.35;0.77;;;;;;;5.89;75.51;97469.97;4958308;28;20566;-94
2021/01/21 06:03:49;;;;;;;6.18;0.80;;;;;;;5.94;75.56;97461.72;4958073;28;20023;-94
2021/01/21 06:06:15;;;;;;;4.72;0.85;;;;;;;5.73;76.07;97459.41;4959499;28;20066;-94
2021/01/21 06:08:44;;;;;;;3.58;0.55;;;;;;;6.19;75.47;97481.06;4974029;28;20133;-94
2021/01/21 06:11:11;;;;;;;7.68;0.75;;;;;;;5.84;76.18;97480.00;4975305;28;20388;-93
2021/01/21 06:13:44;;;;;;;12.40;0.82;;;;;;;6.02;76.02;97474.03;4977624;28;20027;-95
2021/01/21 06:16:10;;;;;;;6.53;1.00;;;;;;;6.23;75.06;97487.59;4961682;28;20508;-94
2021/01/21 06:18:36;;;;;;;5.55;1.00;;;;;;;6.07;75.95;97469.22;4959339;28;20105;-94
2021/01/21 06:21:03;;;;;;;5.28;1.00;;;;;;;5.98;76.31;97467.50;4976814;28;20075;-92
2021/01/21 06:23:32;;;;;;;8.05;0.90;;;;;;;6.06;75.54;97465.81;4945090;29;20031;-95
2021/01/21 06:25:59;;;;;;;6.82;0.90;;;;;;;5.62;76.75;97438.78;4970246;28;20030;-95
2021/01/21 06:28:26;;;;;;;5.35;1.10;;;;;;;6.13;75.70;97472.03;4975607;28;20023;-93
2021/01/21 06:30:55;;;;;;;7.18;0.75;;;;;;;6.10;76.15;97489.75;4978884;28;20031;-95
2021/01/21 06:33:25;;;;;;;6.30;0.70;;;;;;;5.97;76.97;97476.28;4976464;28;20043;-91
2021/01/21 06:35:55;;;;;;;7.50;0.85;;;;;;;5.94;76.37;97478.19;4974220;28;20034;-95
2021/01/21 06:38:24;;;;;;;5.65;1.13;;;;;;;5.81;75.97;97472.50;4969342;28;20023;-92
2021/01/21 06:40:52;;;;;;;3.38;0.65;;;;;;;5.93;76.71;97484.34;4968093;28;20027;-85
2021/01/21 06:43:23;;;;;;;5.28;0.90;;;;;;;5.76;77.26;97490.34;4972533;28;20037;-89
2021/01/21 06:45:50;;;;;;;4.53;0.75;;;;;;;5.95;76.59;97490.25;4975414;28;20062;-89
2021/01/21 06:48:15;;;;;;;11.93;1.50;;;;;;;5.63;77.27;97487.25;4968540;28;20031;-88
2021/01/21 06:50:43;;;;;;;9.40;1.85;;;;;;;5.80;77.25;97481.28;4965567;28;20019;-88
2021/01/21 06:53:12;;;;;;;7.82;1.30;;;;;;;5.80;77.22;97491.69;4968827;28;20103;-88
2021/01/21 06:55:39;;;;;;;9.85;1.08;;;;;;;5.81;76.81;97498.53;4971671;28;20030;-88
2021/01/21 06:58:07;;;;;;;10.57;1.10;;;;;;;5.84;76.28;97481.81;4981796;28;20389;-87
2021/01/21 07:00:44;;;;;;;7.63;1.27;;;;;;;5.76;76.92;97485.94;4965675;28;20023;-89
2021/01/21 07:03:41;;;;;;;6.35;1.02;;;;;;;5.69;77.25;97484.09;4969571;28;20027;-88
2021/01/21 07:06:08;;;;;;;14.80;1.40;;;;;;;5.72;76.70;97468.16;4965496;28;20035;-89
2021/01/21 07:09:03;;;;;;;7.90;1.30;;;;;;;5.68;77.30;97479.84;4982065;28;20370;-88
2021/01/21 07:11:29;;;;;;;13.02;1.52;;;;;;;5.76;76.98;97479.91;4971305;28;20042;-86
2021/01/21 07:13:55;;;;;;;7.95;1.35;;;;;;;5.61;77.51;97465.75;4965997;28;20035;-86
2021/01/21 07:16:21;;;;;;;6.30;1.40;;;;;;;5.72;76.55;97489.00;4959476;28;20529;-84
2021/01/21 07:18:47;;;;;;;7.25;1.55;;;;;;;5.85;76.71;97494.69;4966772;28;20504;-84
2021/01/21 07:21:16;;;;;;;9.63;1.13;;;;;;;5.87;76.18;97517.97;4958054;28;20027;-86
2021/01/21 07:24:03;;;;;;;7.57;1.10;;;;;;;5.81;76.30;97488.13;4965172;28;20041;-83
2021/01/21 07:26:41;;;;;;;10.48;1.40;;;;;;;5.82;76.54;97504.56;4966130;28;20506;-84
2021/01/21 07:29:15;;;;;;;7.97;0.93;;;;;;;5.89;76.24;97527.28;4968929;28;20118;-85
2021/01/21 07:31:52;;;;;;;14.52;1.90;;;;;;;5.95;76.61;97523.31;4959272;28;20118;-83
2021/01/21 07:34:44;;;;;;;7.18;1.00;;;;;;;5.89;76.26;97516.03;4970301;28;20029;-84
2021/01/21 07:37:30;;;;;;;14.55;1.20;;;;;;;5.93;75.72;97523.41;4973211;28;20038;-85
2021/01/21 07:40:10;;;;;;;7.28;0.80;;;;;;;6.03;75.81;97531.22;4973981;28;20027;-85
2021/01/21 07:42:38;;;;;;;6.70;1.30;;;;;;;5.71;76.55;97526.41;4963041;28;20030;-86
2021/01/21 07:45:07;;;;;;;8.60;1.08;;;;;;;5.97;76.07;97525.78;4974579;28;20034;-86
2021/01/21 07:47:38;;;;;;;5.38;1.33;;;;;;;6.02;75.67;97534.75;4967649;28;20477;-87
2021/01/21 07:50:19;;;;;;;7.95;2.20;;;;;;;6.12;74.93;97550.34;4960892;28;20121;-88
2021/01/21 07:53:11;;;;;;;11.20;1.60;;;;;;;5.97;75.18;97552.63;4961533;28;20027;-88
2021/01/21 07:55:47;;;;;;;;;;;;;;;;;;;;;
2021/01/21 07:58:21;;;;;;;10.25;1.00;;;;;;;5.98;75.00;97543.84;4957557;29;19922;-92
2021/01/21 08:00:48;;;;;;;6.57;1.08;;;;;;;5.97;74.61;97529.19;4959841;28;20023;-84
2021/01/21 08:03:15;;;;;;;5.80;1.08;;;;;;;5.97;75.65;97555.22;4957258;28;20035;-86
2021/01/21 08:05:40;;;;;;;9.55;2.72;;;;;;;5.99;75.90;97555.09;4967602;28;20026;-85
2021/01/21 08:08:06;;;;;;;8.45;0.90;;;;;;;5.76;75.94;97532.81;4978654;28;20027;-91
2021/01/21 08:10:36;;;;;;;6.88;0.50;;;;;;;5.97;75.46;97525.78;4966155;28;20106;-90
2021/01/21 08:13:06;;;;;;;9.30;1.45;;;;;;;5.78;76.01;97545.69;4971003;28;20035;-90
2021/01/21 08:15:35;;;;;;;8.52;1.50;;;;;;;6.03;75.49;97517.38;4968315;28;20082;-89
2021/01/21 08:18:00;;;;;;;10.75;1.33;;;;;;;6.40;74.57;97573.75;4961487;28;20019;-90
2021/01/21 08:20:27;;;;;;;9.18;1.10;;;;;;;6.57;73.79;97578.16;4963681;28;20110;-89
2021/01/21 08:23:00;;;;;;;8.15;1.85;;;;;;;5.92;74.33;97594.72;4960364;28;20031;-92
2021/01/21 08:25:40;;;;;;;10.20;1.13;;;;;;;6.19;73.75;97597.47;4968142;28;20023;-93
2021/01/21 08:28:06;;;;;;;5.75;1.15;;;;;;;5.80;74.69;97600.22;4961968;28;20039;-90
2021/01/21 08:30:32;;;;;;;4.95;0.80;;;;;;;5.66;74.76;97565.06;4974311;28;20045;-91
2021/01/21 08:33:25;;;;;;;5.13;0.95;;;;;;;6.09;75.21;97600.13;4965817;28;20513;-92
2021/01/21 08:35:54;;;;;;;7.28;1.02;;;;;;;6.04;74.31;97579.75;4965482;28;20037;-89
2021/01/21 08:38:27;;;;;;;6.50;1.52;;;;;;;6.02;74.88;97567.81;4969247;28;20015;-91
2021/01/21 08:40:54;;;;;;;2.60;0.73;;;;;;;5.93;74.83;97575.50;4973310;28;20030;-90
2021/01/21 08:43:21;;;;;;;4.82;1.08;;;;;;;5.82;75.18;97577.47;4972354;28;20300;-90
2021/01/21 08:45:46;;;;;;;8.10;0.95;;;;;;;6.25;74.36;97625.56;4960100;28;20062;-90
2021/01/21 08:48:32;;;;;;;8.38;1.00;;;;;;;5.90;75.03;97598.41;4963068;28;20027;-89
2021/01/21 08:50:59;;;;;;;1.60;0.52;;;;;;;6.51;74.19;97615.25;4965250;28;20106;-89
2021/01/21 08:53:35;;;;;;;2.65;0.38;;;;;;;6.43;74.87;97618.59;4961001;28;20023;-95
2021/01/21 08:56:12;;;;;;;5.88;0.63;;;;;;;6.33;74.54;97589.16;4963666;28;20469;-92
2021/01/21 08:58:38;;;;;;;5.38;0.93;;;;;;;6.92;73.48;97605.22;4966166;28;20048;-90
2021/01/21 09:01:09;;;;;;;4.70;0.80;;;;;;;7.03;73.89;97607.59;4958929;28;20182;-92
2021/01/21 09:03:50;;;;;;;5.18;1.10;;;;;;;7.14;74.01;97615.19;4976446;28;20031;-93
2021/01/21 09:06:21;;;;;;;7.82;1.15;;;;;;;6.94;74.53;97631.97;4966742;28;20118;-95
2021/01/21 09:08:57;;;;;;;8.50;0.95;;;;;;;6.80;75.40;97625.50;4968038;28;20457;-95
2021/01/21 09:11:39;;;;;;;8.30;1.13;;;;;;;6.34;76.32;97615.09;4979236;28;20032;-92
2021/01/21 09:14:05;;;;;;;;;;;;;;;6.57;77.04;97643.34;4959659;28;20474;-91
2021/01/21 09:16:48;;;;;;;5.47;0.90;;;;;;;6.46;75.77;97617.50;4979396;28;19914;-96
2021/01/21 09:19:16;;;;;;;6.15;0.77;;;;;;;6.52;75.53;97620.31;4974094;28;20058;-91
2021/01/21 09:21:58;;;;;;;5.28;1.10;;;;;;;6.58;75.31;97655.44;4963232;28;20058;-92
2021/01/21 09:24:23;;;;;;;7.50;0.93;;;;;;;6.43;76.48;97664.69;4983291;28;20034;-91
2021/01/21 09:27:08;;;;;;;7.32;0.68;;;;;;;6.14;76.88;97644.78;4990360;28;20034;-94
2021/01/21 09:30:04;;;;;;;4.20;0.90;;;;;;;6.22;77.13;97610.22;4983206;28;20063;-94
2021/01/21 09:32:37;;;;;;;6.43;0.80;;;;;;;6.15;76.67;97591.75;4980629;28;20039;-92
2021/01/21 09:35:04;;;;;;;10.77;1.60;;;;;;;6.34;76.35;97603.84;5004112;28;20461;-91
2021/01/21 09:43:05;;;;;;;3.13;0.50;;;;;;;7.32;72.85;97588.25;5512016;22;20058;-95
2021/01/21 09:45:32;;;;;;;5.18;0.82;;;;;;;7.61;71.70;97587.94;4991693;28;20092;-95
2021/01/21 09:47:57;;;;;;;4.38;0.60;;;;;;;7.79;71.17;97590.47;4982472;28;20081;-92
2021/01/21 09:50:24;;;;;;;4.65;0.80;;;;;;;7.59;71.80;97578.63;4969900;28;20091;-92
2021/01/21 09:52:50;;;;;;;5.57;0.77;;;;;;;7.87;71.01;97616.63;4952301;28;20034;-91
2021/01/21 09:55:16;;;;;;;5.05;0.63;;;;;;;8.00;70.07;97605.78;4983822;28;20018;-95
2021/01/21 09:57:42;;;;;;;3.10;0.77;;;;;;;7.99;70.76;97601.50;4973931;28;20031;-95
2021/01/21 10:00:10;;;;;;;4.65;0.73;;;;;;;7.97;72.16;97592.19;4988517;28;20133;-93
2021/01/21 10:02:35;;;;;;;6.43;0.82;;;;;;;8.37;70.51;97599.34;4976641;28;20023;-91
2021/01/21 10:05:01;;;;;;;8.30;1.15;;;;;;;8.66;69.91;97567.59;4976467;28;20105;-93
2021/01/21 10:07:26;;;;;;;6.95;0.93;;;;;;;9.19;69.34;97593.47;4994357;22;20058;-84
2021/01/21 10:09:52;;;;;;;3.78;1.08;;;;;;;9.28;68.41;97600.31;4975031;28;20037;-87
2021/01/21 10:12:17;;;;;;;10.70;1.27;;;;;;;9.30;67.10;97595.72;4959883;28;20047;-87
2021/01/21 10:14:43;;;;;;;5.32;1.00;;;;;;;9.65;67.30;97599.75;4959862;28;20023;-87
2021/01/21 10:17:09;;;;;;;7.22;0.88;;;;;;;9.48;67.78;97599.00;4968198;28;20149;-83
2021/01/21 10:19:35;;;;;;;6.40;0.93;;;;;;;9.67;66.76;97602.22;4949483;28;20070;-84
2021/01/21 10:22:00;;;;;;;3.13;0.82;;;;;;;10.61;65.35;97616.31;4944195;28;20038;-83
2021/01/21 10:24:29;;;;;;;7.78;1.40;;;;;;;11.81;62.77;97607.78;4945554;28;20037;-83
2021/01/21 10:26:54;;;;;;;10.60;1.30;;;;;;;10.60;62.90;97612.03;4955372;28;20030;-84
2021/01/21 10:29:20;;;;;;;6.20;0.90;;;;;;;10.56;65.73;97623.88;4956156;28;20031;-86
2021/01/21 10:31:46;;;;;;;6.93;1.92;;;;;;;12.23;63.27;97632.66;4958436;28;20608;-86
2021/01/21 10:34:11;;;;;;;5.70;1.48;;;;;;;12.12;59.75;97614.69;4950868;28;20031;-87
2021/01/21 10:36:37;;;;;;;6.03;1.25;;;;;;;11.26;62.60;97625.53;4959395;28;20023;-85
2021/01/21 10:39:04;;;;;;;10.15;1.13;;;;;;;11.03;62.38;97636.06;4967101;28;20031;-86
2021/01/21 10:41:29;;;;;;;7.72;1.00;;;;;;;10.13;64.08;97639.13;4946262;28;20062;-85
2021/01/21 10:43:55;;;;;;;8.13;1.10;;;;;;;10.16;64.64;97630.09;4947344;28;20063;-86
2021/01/21 10:46:20;;;;;;;7.40;1.10;;;;;;;10.45;63.84;97637.41;4955543;28;20094;-86
2021/01/21 10:48:46;;;;;;;5.82;1.00;;;;;;;10.62;63.58;97631.06;4957047;29;20055;-86
2021/01/21 10:51:11;;;;;;;7.32;1.10;;;;;;;10.00;65.82;97623.13;4948102;28;20071;-87
2021/01/21 10:53:36;;;;;;;6.43;1.20;;;;;;;9.77;62.86;97615.94;4929816;28;20043;-87
2021/01/21 10:56:02;;;;;;;6.68;1.13;;;;;;;10.09;65.03;97619.47;4948013;28;20397;-86
2021/01/21 10:58:28;;;;;;;10.18;1.13;;;;;;;10.25;65.09;97626.47;4950050;28;20394;-87
2021/01/21 11:00:53;;;;;;;8.02;1.02;;;;;;;9.33;68.06;97632.88;4950602;28;20036;-87
2021/01/21 11:03:19;;;;;;;7.43;1.20;;;;;;;9.53;67.77;97643.81;4942199;28;20032;-88
2021/01/21 11:05:44;;;;;;;11.23;1.45;;;;;;;9.33;69.19;97637.31;4946240;28;20028;-87
2021/01/21 11:08:11;;;;;;;9.23;1.98;;;;;;;8.36;69.25;97616.03;4954623;28;20031;-88
2021/01/21 11:10:37;;;;;;;6.22;1.00;;;;;;;8.79;68.35;97608.13;4954113;28;20481;-86
2021/01/21 11:13:03;;;;;;;6.30;1.38;;;;;;;9.11;68.80;97621.25;4931676;28;20501;-87
2021/01/21 11:15:29;;;;;;;8.80;0.93;;;;;;;9.16;68.52;97619.94;4945168;28;20038;-88
2021/01/21 11:17:55;;;;;;;4.32;1.70;;;;;;;8.78;68.91;97635.28;4972810;28;20035;-90
2021/01/21 11:20:21;;;;;;;7.80;1.70;;;;;;;8.69;72.03;97619.59;4944807;28;20032;-86
2021/01/21 11:22:47;;;;;;;5.63;1.20;;;;;;;10.03;68.45;97618.34;4949223;28;20091;-89
2021/01/21 11:25:12;;;;;;;9.15;1.60;;;;;;;10.30;68.97;97614.50;4950033;28;20031;-87
2021/01/21 11:27:38;;;;;;;5.88;1.10;;;;;;;10.28;65.40;97611.19;4952739;28;20031;-87
2021/01/21 11:30:06;;;;;;;7.38;0.93;;;;;;;10.87;66.95;97607.28;4954896;28;20482;-87
2021/01/21 11:32:31;;;;;;;8.85;1.27;;;;;;;10.92;65.23;97610.22;4940898;28;20098;-88
2021/01/21 11:34:57;;;;;;;9.23;1.90;;;;;;;10.39;67.23;97601.34;4951620;29;20027;-87
2021/01/21 11:37:23;;;;;;;11.57;1.23;;;;;;;10.64;64.34;97608.09;4953241;28;20557;-87
2021/01/21 11:39:48;;;;;;;6.88;1.23;;;;;;;11.65;63.79;97611.41;4953939;28;20031;-87
2021/01/21 11:42:13;;;;;;;10.38;1.42;;;;;;;11.22;63.75;97610.31;4948342;28;20028;-87
2021/01/21 11:44:39;;;;;;;9.65;1.10;;;;;;;10.61;65.70;97616.31;4954253;28;20054;-86
2021/01/21 11:47:04;;;;;;;7.55;1.58;;;;;;;10.41;66.10;97612.50;4952982;28;20034;-88
2021/01/21 11:49:30;;;;;;;11.18;1.45;;;;;;;10.38;64.74;97607.59;4949115;28;20105;-89
2021/01/21 11:51:55;;;;;;;11.40;1.63;;;;;;;9.88;65.49;97607.75;4946285;29;20477;-87
2021/01/21 11:54:21;;;;;;;12.20;1.75;;;;;;;9.78;66.28;97614.16;4952479;28;20565;-86
2021/01/21 11:56:47;;;;;;;5.40;1.10;;;;;;;10.32;66.27;97604.63;4965480;28;20046;-88
2021/01/21 11:59:12;;;;;;;11.70;1.52;;;;;;;10.49;65.46;97613.25;4961601;28;20027;-88
2021/01/21 12:01:37;;;;;;;11.07;2.17;;;;;;;10.95;64.57;97601.97;4946484;28;20039;-85
2021/01/21 12:04:03;;;;;;;8.43;1.77;;;;;;;10.14;65.85;97598.81;4941342;29;20167;-87
2021/01/21 12:06:28;;;;;;;10.45;1.90;;;;;;;10.41;65.01;97604.63;4955132;28;20398;-86
2021/01/21 12:08:53;;;;;;;7.30;1.00;;;;;;;10.45;63.07;97603.28;4954081;28;21173;-89
2021/01/21 12:11:19;;;;;;;7.07;1.30;;;;;;;11.15;63.00;97602.31;4940788;28;20391;-88
2021/01/21 12:13:55;;;;;;;8.77;1.35;;;;;;;10.88;61.27;97591.38;5068443;28;20392;-90
2021/01/21 12:16:21;;;;;;;7.35;1.42;;;;;;;10.37;63.13;97590.19;5069136;28;20048;-91
2021/01/21 12:18:47;;;;;;;5.45;1.00;;;;;;;10.15;63.49;97597.84;5050530;28;20034;-89
2021/01/21 12:21:12;;;;;;;4.47;0.70;;;;;;;10.09;64.59;97595.84;5050251;28;20036;-85
2021/01/21 12:23:37;;;;;;;6.35;1.23;;;;;;;10.51;64.13;97600.78;5046310;28;20033;-88
2021/01/21 12:26:06;;;;;;;2.97;0.80;;;;;;;10.27;63.61;97588.59;5048271;28;20029;-86
2021/01/21 12:28:31;;;;;;;6.13;1.15;;;;;;;9.70;65.84;97587.00;5047494;28;20021;-89
2021/01/21 12:30:57;;;;;;;4.40;1.10;;;;;;;10.14;64.28;97598.81;5048859;28;20060;-88
2021/01/21 12:33:22;;;;;;;12.43;1.30;;;;;;;10.02;65.83;97600.16;5042646;28;20026;-86
2021/01/21 12:35:47;;;;;;;5.35;0.95;;;;;;;9.93;66.11;97589.72;5040851;28;20029;-86
2021/01/21 12:38:13;;;;;;;7.80;1.38;;;;;;;9.57;67.38;97583.25;5036191;28;20090;-85
2021/01/21 12:40:38;;;;;;;3.63;0.60;;;;;;;9.47;66.60;97573.78;5034685;28;20033;-85
2021/01/21 12:43:03;;;;;;;7.22;1.13;;;;;;;9.98;65.51;97570.03;5040879;28;20105;-85
2021/01/21 12:45:29;;;;;;;5.25;0.82;;;;;;;10.04;65.77;97569.34;5047785;28;20064;-85
2021/01/21 12:47:54;;;;;;;12.18;1.88;;;;;;;9.84;65.90;97567.13;5047699;28;20065;-85
2021/01/21 12:50:20;;;;;;;7.75;1.02;;;;;;;9.91;64.47;97568.09;5051041;28;20029;-85
2021/01/21 12:52:45;;;;;;;4.55;1.00;;;;;;;10.26;64.15;97576.44;5047886;28;20032;-85
2021/01/21 12:55:11;;;;;;;3.40;0.77;;;;;;;9.37;64.66;97560.03;5052236;28;20430;-84
2021/01/21 12:57:37;;;;;;;6.40;1.10;;;;;;;9.81;65.14;97567.47;5045521;28;20025;-86
2021/01/21 13:00:04;;;;;;;6.43;1.10;;;;;;;9.49;64.77;97563.94;5046930;28;20068;-85
2021/01/21 13:02:30;;;;;;;4.50;1.45;;;;;;;9.80;65.19;97559.78;5032282;28;20022;-85
2021/01/21 13:04:55;;;;;;;6.03;1.20;;;;;;;9.22;67.00;97561.69;5033073;28;20533;-85
2021/01/21 13:07:20;;;;;;;5.90;1.25;;;;;;;9.35;66.02;97558.59;5053033;22;20392;-82
2021/01/21 13:09:46;;;;;;;7.05;1.00;;;;;;;9.60;67.02;97552.31;5021079;28;20025;-82
2021/01/21 13:12:11;;;;;;;4.18;0.75;;;;;;;9.58;65.49;97546.44;5027465;28;20025;-82
2021/01/21 13:14:37;;;;;;;8.93;1.88;;;;;;;9.97;64.96;97543.00;5028200;28;20080;-82
2021/01/21 13:17:02;;;;;;;8.65;1.10;;;;;;;10.02;63.11;97538.06;5026326;28;20026;-82
2021/01/21 13:19:27;;;;;;;4.63;0.85;;;;;;;9.96;65.74;97538.75;5008232;28;20073;-82
2021/01/21 13:21:53;;;;;;;7.82;1.35;;;;;;;9.92;65.07;97526.97;5010298;28;20113;-83
2021/01/21 13:24:19;;;;;;;7.20;1.58;;;;;;;9.65;63.65;97526.41;5000867;28;20030;-82
2021/01/21 13:26:44;;;;;;;6.65;1.58;;;;;;;9.41;65.80;97526.50;4994595;28;20432;-82
2021/01/21 13:29:09;;;;;;;5.72;1.98;;;;;;;9.25;66.42;97524.72;4993479;28;20035;-82
2021/01/21 13:31:35;;;;;;;4.90;0.98;;;;;;;9.75;65.89;97525.41;4996652;28;20029;-83
2021/01/21 13:34:02;;;;;;;9.45;1.20;;;;;;;9.80;66.49;97518.66;4994422;28;20030;-83
2021/01/21 13:36:27;;;;;;;8.00;1.08;;;;;;;9.71;65.79;97519.69;4993970;28;20026;-83
2021/01/21 13:38:53;;;;;;;6.20;2.33;;;;;;;9.70;65.41;97518.06;4994536;28;20489;-83